Dahinda, Illinois
Current Conditions -  °F | °C
As of 12:35 PM on Thursday 27 Nov 2014 (Local Time) from KGBG Reporting Station
Scattered Clouds Scattered Clouds  
Wind Chill:   Ceiling: Unl
Heat Index: 21°   Visibility: 10mi
Dew Point: 15°   Wind: 14mph
Humidity: 79%   Direction: 270°W
Pressure: 30.43"   Gusts: NA
Location:  40.92°N, 90.11°W
Report Text: KGBG 271835Z AUTO 27012KT 10SM SCT015 M06/M09 A3043 RMK AO2 T10611092
Loading
Personal Weather Stations






























Interactive Weather Map New forecast layout! Learn more

10-Day Weather Forecast

Advertisements
Track Severe Weather on mobile